Time;durP1;ratioP1;P1;durP2;ratioP2;P2;SDS_P1;SDS_P2;PMS_P1;PMS_P2;Temp;Humidity;BMP_temperature;BMP_pressure;BME280_temperature;BME280_humidity;BME280_pressure;Samples;Min_cycle;Max_cycle;Signal;HPM_P1;HPM_P2
2021/08/11 00:00:47;;;;;;;10.40;8.93;;;;;;;25.31;57.88;94946.72;6276909;22;20391;-85
2021/08/11 00:03:14;;;;;;;10.00;9.03;;;;;;;25.26;58.09;94943.88;6276630;22;20380;-85
2021/08/11 00:05:41;;;;;;;9.70;8.80;;;;;;;25.22;58.23;94936.50;6276411;22;20394;-85
2021/08/11 00:08:08;;;;;;;9.70;8.90;;;;;;;25.16;58.19;94932.81;6224563;22;20410;-86
2021/08/11 00:10:35;;;;;;;9.90;8.07;;;;;;;25.13;58.24;94935.09;6276662;22;20392;-85
2021/08/11 00:13:03;;;;;;;9.97;9.07;;;;;;;25.10;57.96;94941.72;6276900;22;20388;-85
2021/08/11 00:15:30;;;;;;;9.40;8.60;;;;;;;25.06;58.10;94935.16;6277318;22;20405;-85
2021/08/11 00:17:57;;;;;;;13.43;9.30;;;;;;;25.00;58.05;94925.28;6278558;22;20403;-85
2021/08/11 00:20:25;;;;;;;9.30;8.50;;;;;;;25.00;57.80;94925.28;6278297;22;20400;-85
2021/08/11 00:22:51;;;;;;;10.90;8.60;;;;;;;25.02;57.75;94933.94;6225863;22;20414;-85
2021/08/11 00:25:19;;;;;;;8.40;7.70;;;;;;;25.03;57.77;94930.22;6278742;22;20498;-85
2021/08/11 00:27:45;;;;;;;10.03;8.73;;;;;;;25.07;57.69;94926.06;6278412;22;20432;-85
2021/08/11 00:30:14;;;;;;;10.50;9.20;;;;;;;25.08;58.09;94924.19;6278322;22;20474;-85
2021/08/11 00:32:41;;;;;;;9.60;8.50;;;;;;;25.14;57.75;94929.50;6278504;22;20408;-85
2021/08/11 00:35:09;;;;;;;9.90;9.00;;;;;;;25.13;57.50;94933.22;6278147;22;20947;-85
2021/08/11 00:37:36;;;;;;;10.90;9.20;;;;;;;24.99;58.55;94934.38;6278234;22;20395;-85
2021/08/11 00:40:03;;;;;;;12.00;8.47;;;;;;;25.04;58.10;94937.25;6278532;22;20403;-86
2021/08/11 00:45:53;;;;;;;9.53;8.70;;;;;;;25.08;58.36;94946.50;6276704;22;20445;-85
2021/08/11 00:48:27;;;;;;;9.67;8.77;;;;;;;25.09;57.94;94945.47;6278559;22;20706;-85
2021/08/11 00:50:54;;;;;;;8.83;8.13;;;;;;;25.05;57.76;94946.13;6278400;22;20396;-86
2021/08/11 00:53:25;;;;;;;8.63;7.93;;;;;;;25.03;58.31;94943.66;6277986;22;20482;-85
2021/08/11 01:19:33;;;;;;;9.43;8.63;;;;;;;24.79;59.27;94931.81;6277962;22;20362;-85
2021/08/11 01:22:06;;;;;;;15.20;8.93;;;;;;;24.67;59.62;94920.13;6278116;22;20425;-85
2021/08/11 01:24:39;;;;;;;9.27;8.43;;;;;;;24.70;59.94;94930.44;6277636;22;20474;-85
2021/08/11 01:27:30;;;;;;;11.47;9.47;;;;;;;24.77;60.11;94922.31;6277457;22;20848;-85
2021/08/11 01:30:12;;;;;;;11.87;10.57;;;;;;;24.26;62.32;94931.25;6153946;23;20625;-85
2021/08/11 01:33:02;;;;;;;12.33;10.97;;;;;;;24.20;62.62;94929.41;6153907;23;20857;-85
2021/08/11 01:35:36;;;;;;;14.00;12.60;;;;;;;23.91;64.33;94926.22;6153974;23;20504;-85
2021/08/11 01:38:07;;;;;;;13.67;12.27;;;;;;;23.99;64.03;94925.16;6154061;23;20485;-84
2021/08/11 01:40:37;;;;;;;14.10;12.60;;;;;;;24.05;63.89;94922.47;6153876;23;20642;-84
2021/08/11 01:43:08;;;;;;;13.13;11.83;;;;;;;24.12;63.96;94930.50;6153797;23;20483;-84
2021/08/11 01:45:39;;;;;;;12.97;11.77;;;;;;;24.15;63.75;94934.59;6153584;23;20413;-85
2021/08/11 01:48:11;;;;;;;12.53;11.33;;;;;;;24.20;63.92;94932.09;6153421;23;20445;-85
2021/08/11 01:50:45;;;;;;;14.17;12.47;;;;;;;24.23;63.61;94932.50;6153701;23;20490;-84
2021/08/11 01:53:20;;;;;;;12.40;11.30;;;;;;;24.28;63.86;94927.34;6153268;23;20445;-84
2021/08/11 01:55:49;;;;;;;12.77;11.43;;;;;;;24.32;63.47;94923.22;6153334;23;20484;-84
2021/08/11 01:58:16;;;;;;;12.67;11.40;;;;;;;24.39;63.50;94928.53;6153456;23;20270;-84
2021/08/11 02:00:43;;;;;;;12.43;11.23;;;;;;;24.40;63.28;94924.81;6153449;23;20525;-84
2021/08/11 02:03:11;;;;;;;13.10;10.83;;;;;;;24.44;63.08;94915.31;6153340;23;20406;-85
2021/08/11 02:05:38;;;;;;;11.30;10.20;;;;;;;24.45;62.55;94916.94;6153657;23;20414;-84
2021/08/11 02:08:09;;;;;;;12.93;10.97;;;;;;;24.44;61.75;94918.00;6257542;22;20481;-85
2021/08/11 02:10:37;;;;;;;10.57;9.47;;;;;;;24.37;61.98;94917.22;6249226;22;20406;-84
2021/08/11 02:13:06;;;;;;;10.50;9.47;;;;;;;24.32;61.69;94917.84;6276800;22;20486;-85
2021/08/11 02:15:33;;;;;;;10.77;9.70;;;;;;;24.23;61.91;94915.59;6277286;22;20420;-85
2021/08/11 02:18:00;;;;;;;11.50;9.97;;;;;;;24.15;61.75;94923.88;6276453;22;20490;-85
2021/08/11 02:20:27;;;;;;;9.90;8.90;;;;;;;24.04;62.21;94928.06;6277521;22;20388;-85
2021/08/11 02:22:54;;;;;;;11.27;10.37;;;;;;;24.01;62.17;94923.13;6224314;22;20385;-85
2021/08/11 02:25:23;;;;;;;10.17;9.10;;;;;;;23.98;62.50;94926.19;6277013;22;20494;-85
2021/08/11 02:27:54;;;;;;;10.80;9.80;;;;;;;23.90;62.72;94921.91;6277510;22;20842;-85
2021/08/11 02:30:25;;;;;;;10.43;8.40;;;;;;;23.92;63.02;94924.38;6277095;22;20387;-85
2021/08/11 02:32:57;;;;;;;10.20;9.20;;;;;;;23.93;62.96;94926.00;6225579;22;20963;-85
2021/08/11 02:35:30;;;;;;;12.20;9.97;;;;;;;23.95;62.90;94926.63;6278091;22;20405;-85
2021/08/11 02:38:03;;;;;;;10.77;9.73;;;;;;;23.93;63.13;94929.53;6277268;22;20470;-85
2021/08/11 02:40:38;;;;;;;13.97;9.23;;;;;;;23.98;62.88;94935.06;6224361;22;20976;-85
2021/08/11 02:43:10;;;;;;;15.60;10.30;;;;;;;23.95;62.84;94930.13;6276491;22;20953;-85
2021/08/11 02:45:40;;;;;;;11.20;9.37;;;;;;;23.89;62.96;94927.47;6277033;22;20533;-85
2021/08/11 02:48:10;;;;;;;9.90;9.10;;;;;;;23.86;62.97;94933.25;6276592;22;20973;-85
2021/08/11 02:50:39;;;;;;;10.23;9.10;;;;;;;23.93;62.95;94934.06;6277949;22;20776;-85
2021/08/11 02:53:06;;;;;;;11.17;10.20;;;;;;;23.98;63.29;94927.03;6276778;22;20428;-85
2021/08/11 02:55:38;;;;;;;10.70;9.57;;;;;;;23.92;63.54;94919.84;6277237;22;20991;-85
2021/08/11 03:01:28;;;;;;;11.00;9.87;;;;;;;23.85;63.27;94916.34;6276925;22;20376;-85
2021/08/11 03:03:56;;;;;;;10.10;9.20;;;;;;;23.88;63.01;94915.09;6276760;22;20393;-85
2021/08/11 03:06:24;;;;;;;9.60;8.70;;;;;;;23.77;63.60;94917.41;6276717;22;20964;-85
2021/08/11 03:08:52;;;;;;;10.73;9.83;;;;;;;23.73;63.27;94913.53;6277009;22;20472;-85
2021/08/11 03:11:21;;;;;;;11.30;10.20;;;;;;;23.75;63.45;94914.13;6276751;22;20462;-85
2021/08/11 03:13:48;;;;;;;10.20;9.30;;;;;;;23.77;63.49;94913.91;6249150;22;20471;-84
2021/08/11 03:16:16;;;;;;;10.37;9.37;;;;;;;23.75;63.30;94922.16;6277055;22;20956;-85
2021/08/11 03:18:43;;;;;;;11.23;10.13;;;;;;;23.71;63.79;94922.81;6277070;22;20392;-85
2021/08/11 03:21:10;;;;;;;14.03;10.30;;;;;;;23.73;63.79;94923.41;6276710;22;20392;-85
2021/08/11 03:23:37;;;;;;;10.87;9.90;;;;;;;23.59;64.17;94916.44;6276578;22;20929;-85
2021/08/11 03:26:04;;;;;;;14.63;8.80;;;;;;;23.58;64.00;94922.81;6276976;22;20500;-85
2021/08/11 03:28:32;;;;;;;11.07;10.10;;;;;;;23.66;63.81;94919.91;6276501;22;20971;-85
2021/08/11 03:30:59;;;;;;;13.17;10.30;;;;;;;23.62;64.02;94924.88;6276670;22;20880;-85
2021/08/11 03:33:26;;;;;;;9.50;8.60;;;;;;;23.64;63.84;94935.38;6276581;22;20804;-85
2021/08/11 03:35:53;;;;;;;10.20;9.23;;;;;;;23.70;63.74;94942.56;6276880;22;20459;-85
2021/08/11 03:38:20;;;;;;;12.30;10.10;;;;;;;23.81;63.81;94944.63;6276608;22;20392;-85
2021/08/11 03:40:47;;;;;;;11.63;10.30;;;;;;;23.85;63.24;94931.63;6276506;22;20473;-85
2021/08/11 03:43:14;;;;;;;11.07;10.10;;;;;;;23.77;63.71;94927.31;6249136;22;20958;-85
2021/08/11 03:45:43;;;;;;;12.63;10.23;;;;;;;23.85;63.81;94934.28;6276839;22;20420;-85
2021/08/11 03:48:11;;;;;;;10.83;9.80;;;;;;;23.86;63.78;94934.09;6276784;22;20435;-85
2021/08/11 03:50:38;;;;;;;12.80;10.23;;;;;;;23.87;64.40;94935.72;6277183;22;20798;-85
2021/08/11 03:53:05;;;;;;;14.17;11.27;;;;;;;23.78;64.56;94935.16;6279349;22;20949;-85
2021/08/11 03:55:32;;;;;;;12.63;11.30;;;;;;;23.57;65.86;94956.00;6278518;22;20524;-84
2021/08/11 03:57:59;;;;;;;12.30;11.00;;;;;;;23.51;66.34;94964.84;6279195;22;20453;-85
2021/08/11 04:00:27;;;;;;;12.60;11.10;;;;;;;23.48;66.47;94966.09;6279137;22;20504;-85
2021/08/11 04:02:56;;;;;;;12.07;11.00;;;;;;;23.49;66.42;94976.59;6279152;22;20489;-83
2021/08/11 04:05:23;;;;;;;13.20;11.70;;;;;;;23.49;66.46;94970.41;6278526;22;20404;-82
2021/08/11 04:07:50;;;;;;;14.00;12.03;;;;;;;23.51;66.17;94964.84;6278317;22;20475;-80
2021/08/11 04:10:17;;;;;;;13.20;11.60;;;;;;;23.44;66.42;94972.88;6278865;22;20464;-81
2021/08/11 04:12:44;;;;;;;13.83;12.60;;;;;;;23.44;66.19;94973.72;6225313;22;20478;-80
2021/08/11 04:15:12;;;;;;;14.73;13.07;;;;;;;23.47;66.41;94970.63;6278324;22;20480;-80
2021/08/11 04:17:39;;;;;;;16.40;13.10;;;;;;;23.55;66.38;94974.94;6278782;22;20431;-81
2021/08/11 04:20:09;;;;;;;21.23;12.90;;;;;;;23.74;66.01;94967.94;6278472;22;20405;-81
2021/08/11 04:22:48;;;;;;;12.67;11.30;;;;;;;23.90;66.18;94970.16;6278395;22;20482;-79
2021/08/11 04:25:20;;;;;;;13.90;11.07;;;;;;;24.10;65.42;94968.25;6278162;22;20416;-81
2021/08/11 04:27:53;;;;;;;15.33;11.73;;;;;;;24.22;64.66;94967.56;6278342;22;20443;-81
2021/08/11 04:30:25;;;;;;;14.10;12.00;;;;;;;24.36;64.59;94969.22;6226874;22;20409;-80
2021/08/11 04:32:57;;;;;;;11.17;10.27;;;;;;;24.61;62.81;94972.81;6278435;22;20399;-81
2021/08/11 04:35:27;;;;;;;14.50;10.67;;;;;;;24.83;62.24;94972.44;6278758;22;20391;-81
2021/08/11 04:37:56;;;;;;;11.10;10.00;;;;;;;24.92;61.29;94976.53;6225662;22;20415;-81
2021/08/11 04:40:24;;;;;;;11.40;10.30;;;;;;;24.98;61.36;94979.22;6278595;22;20404;-81
2021/08/11 04:42:52;;;;;;;11.03;9.70;;;;;;;25.21;60.70;94981.31;6278382;22;20406;-83
2021/08/11 04:45:19;;;;;;;11.70;10.40;;;;;;;25.44;59.89;94983.41;6278091;22;20437;-83
2021/08/11 04:47:48;;;;;;;11.00;10.00;;;;;;;25.74;59.09;94980.91;6224281;22;20471;-82
2021/08/11 04:50:15;;;;;;;10.30;9.37;;;;;;;26.05;58.41;94984.53;6277761;22;20901;-82
2021/08/11 04:52:44;;;;;;;11.40;10.10;;;;;;;26.35;58.08;94977.38;6224568;22;20492;-81
2021/08/11 04:55:13;;;;;;;19.90;11.53;;;;;;;26.49;57.44;94970.78;6278214;22;20503;-86
2021/08/11 04:57:40;;;;;;;14.80;11.50;;;;;;;26.77;57.53;94972.06;6225268;22;20408;-86
2021/08/11 05:00:08;;;;;;;12.90;11.60;;;;;;;27.11;56.22;94982.16;6277464;22;20424;-86
2021/08/11 05:02:37;;;;;;;10.93;9.77;;;;;;;27.45;55.21;94972.50;6277235;22;20412;-86
2021/08/11 05:05:06;;;;;;;11.27;10.30;;;;;;;27.72;53.84;94970.22;6277275;22;20873;-84
2021/08/11 05:07:33;;;;;;;10.20;9.33;;;;;;;27.86;53.30;94964.59;6277806;22;20428;-86
2021/08/11 05:10:02;;;;;;;10.57;9.60;;;;;;;28.06;52.57;94973.16;6277153;22;20472;-88
2021/08/11 05:12:30;;;;;;;9.20;8.50;;;;;;;28.34;52.09;94964.34;6277458;22;20491;-88
2021/08/11 05:14:57;;;;;;;10.63;9.63;;;;;;;28.67;50.91;94966.34;6277318;22;20917;-87
2021/08/11 05:17:24;;;;;;;9.73;8.73;;;;;;;28.81;49.70;94964.97;6277819;22;20496;-87
2021/08/11 05:19:52;;;;;;;10.87;9.87;;;;;;;29.03;49.74;94972.44;6278561;22;20431;-87
2021/08/11 05:22:20;;;;;;;10.03;9.03;;;;;;;29.17;49.09;94977.28;6277712;22;20770;-87
2021/08/11 05:24:47;;;;;;;12.13;9.13;;;;;;;29.33;48.66;94967.56;6279265;22;20459;-87
2021/08/11 05:27:16;;;;;;;10.60;9.60;;;;;;;29.61;49.04;94969.41;6278230;22;20431;-88
2021/08/11 05:29:45;;;;;;;10.20;9.20;;;;;;;29.76;47.82;94971.50;6278949;22;20428;-83
2021/08/11 05:32:12;;;;;;;13.20;10.03;;;;;;;29.72;46.24;94978.50;6278460;22;20385;-84
2021/08/11 05:34:39;;;;;;;10.47;9.47;;;;;;;29.73;48.21;94966.59;6250195;22;20783;-83
2021/08/11 05:37:06;;;;;;;9.93;8.93;;;;;;;30.11;47.73;94974.78;6277666;22;20401;-84
2021/08/11 05:39:33;;;;;;;12.27;9.03;;;;;;;30.56;47.21;94976.44;6277488;22;20479;-84
2021/08/11 05:42:00;;;;;;;10.87;9.80;;;;;;;30.99;46.11;94972.09;6278320;22;20740;-82
2021/08/11 05:44:29;;;;;;;17.23;9.20;;;;;;;31.22;43.97;94971.78;6277395;22;20432;-82
2021/08/11 05:46:56;;;;;;;9.83;8.90;;;;;;;31.35;43.69;94970.56;6277337;22;20476;-79
2021/08/11 05:49:23;;;;;;;15.50;9.43;;;;;;;31.35;42.73;94968.69;6277764;22;20527;-86
2021/08/11 05:51:50;;;;;;;10.70;9.53;;;;;;;31.44;43.04;94972.53;6277563;22;20413;-83
2021/08/11 05:54:16;;;;;;;9.70;8.70;;;;;;;31.52;42.65;94978.59;6277857;22;20432;-84
2021/08/11 05:56:43;;;;;;;10.37;9.37;;;;;;;31.49;42.87;94984.50;6277326;22;20403;-83
2021/08/11 05:59:10;;;;;;;11.33;8.60;;;;;;;31.48;43.08;94978.28;6277635;22;20393;-82
2021/08/11 06:01:39;;;;;;;10.67;9.70;;;;;;;31.53;42.35;94974.81;6224626;22;20407;-83
2021/08/11 06:04:06;;;;;;;10.57;9.43;;;;;;;31.57;42.81;94968.59;6278628;22;20388;-83
2021/08/11 06:06:33;;;;;;;10.87;9.13;;;;;;;31.57;42.84;94970.50;6278459;22;20720;-83
2021/08/11 06:09:00;;;;;;;10.23;9.20;;;;;;;31.60;42.96;94970.78;6277942;22;20432;-83
2021/08/11 06:11:27;;;;;;;12.70;8.77;;;;;;;31.55;42.94;94970.75;6277777;22;20397;-83
2021/08/11 06:13:53;;;;;;;9.67;8.67;;;;;;;31.46;42.79;94968.75;6224432;22;20405;-84
2021/08/11 06:16:20;;;;;;;10.73;9.03;;;;;;;31.53;42.54;94970.19;6277233;22;20385;-80
2021/08/11 06:18:49;;;;;;;10.80;9.50;;;;;;;31.75;43.65;94964.69;6277125;22;20399;-84
2021/08/11 06:21:16;;;;;;;9.53;8.53;;;;;;;32.03;41.39;94963.50;6277275;22;20391;-84
2021/08/11 06:23:42;;;;;;;9.37;8.47;;;;;;;32.27;39.52;94974.81;6276909;22;20735;-84
2021/08/11 06:26:09;;;;;;;9.27;8.37;;;;;;;32.50;38.96;94968.16;6277348;22;20423;-84
2021/08/11 06:28:36;;;;;;;9.03;8.13;;;;;;;32.56;39.63;94956.22;6276540;22;20853;-85
2021/08/11 06:31:03;;;;;;;8.60;7.90;;;;;;;32.59;39.13;94956.50;6275866;22;20395;-85
2021/08/11 06:33:30;;;;;;;8.50;7.70;;;;;;;32.53;38.86;94952.13;6223216;22;20400;-84
2021/08/11 06:35:58;;;;;;;12.70;8.60;;;;;;;32.65;39.67;94955.44;6276551;22;20401;-85
2021/08/11 06:45:10;;;;;;;10.53;8.40;;;;;;;32.92;38.11;94954.44;6274803;22;20404;-85
2021/08/11 06:47:37;;;;;;;15.13;9.13;;;;;;;33.04;38.69;94957.75;6275992;22;20403;-85
2021/08/11 06:50:05;;;;;;;13.53;9.10;;;;;;;32.97;38.41;94950.97;6275673;22;20457;-85
2021/08/11 06:52:34;;;;;;;10.10;9.20;;;;;;;32.91;38.17;94947.38;6275828;22;20397;-85
2021/08/11 06:55:02;;;;;;;15.50;10.77;;;;;;;33.05;36.97;94943.09;6276644;22;20428;-85
2021/08/11 06:57:29;;;;;;;11.77;9.87;;;;;;;33.10;38.45;94951.25;6275728;22;20959;-85
2021/08/11 06:59:56;;;;;;;9.80;8.93;;;;;;;33.11;39.57;94950.16;6276552;22;20415;-85
2021/08/11 07:02:23;;;;;;;10.20;8.77;;;;;;;32.84;39.18;94952.25;6222921;22;20718;-85
2021/08/11 07:04:50;;;;;;;11.80;10.60;;;;;;;32.43;39.71;94952.09;6276250;22;20472;-85
2021/08/11 07:10:40;;;;;;;15.57;10.60;;;;;;;32.37;39.72;94957.75;6275499;22;20387;-85
2021/08/11 07:13:07;;;;;;;14.73;11.60;;;;;;;32.39;40.35;94961.88;6275998;22;20392;-85
2021/08/11 07:15:34;;;;;;;11.50;10.10;;;;;;;32.17;40.31;94956.56;6276603;22;20389;-84
2021/08/11 07:18:01;;;;;;;13.37;10.50;;;;;;;32.44;39.96;94970.03;6278394;22;20778;-85
2021/08/11 07:20:31;;;;;;;18.27;11.50;;;;;;;32.66;39.38;94957.06;6276402;22;20399;-85
2021/08/11 07:22:58;;;;;;;18.90;10.80;;;;;;;32.83;39.52;94967.75;6276905;22;20397;-86
2021/08/11 07:25:25;;;;;;;14.47;11.87;;;;;;;32.80;39.89;94962.03;6276146;22;20438;-86
2021/08/11 08:06:25;;;;;;;13.33;10.47;;;;;;;33.47;37.39;94942.06;6271016;22;20406;-86
2021/08/11 08:08:54;;;;;;;10.63;9.63;;;;;;;33.53;34.44;94943.69;6245189;23;20480;-85
2021/08/11 08:11:21;;;;;;;12.87;9.60;;;;;;;33.66;34.45;94932.25;6245223;23;20472;-85
2021/08/11 08:13:48;;;;;;;12.93;9.63;;;;;;;33.60;34.63;94929.81;6245738;23;20390;-84
2021/08/11 08:16:17;;;;;;;12.00;9.20;;;;;;;33.63;35.82;94934.72;6245372;23;20410;-85
2021/08/11 08:18:44;;;;;;;9.53;8.83;;;;;;;33.42;36.05;94942.06;6244546;23;20472;-86
2021/08/11 08:21:11;;;;;;;9.47;8.57;;;;;;;33.49;34.32;94937.97;6245253;23;20408;-86
2021/08/11 08:23:38;;;;;;;9.63;8.70;;;;;;;33.68;34.36;94934.72;6245500;23;20472;-86
2021/08/11 08:26:07;;;;;;;10.73;8.40;;;;;;;33.75;33.61;94936.06;6246203;22;20437;-86
2021/08/11 08:28:34;;;;;;;8.87;8.07;;;;;;;33.82;33.52;94928.41;6245620;23;20455;-85
2021/08/11 08:31:00;;;;;;;12.63;8.87;;;;;;;33.96;33.12;94928.72;6245293;23;20393;-86
2021/08/11 08:33:27;;;;;;;9.27;8.47;;;;;;;34.01;32.91;94908.81;6245636;23;20394;-86
2021/08/11 08:35:54;;;;;;;9.07;8.17;;;;;;;34.04;31.02;94914.53;6245898;23;20473;-86
2021/08/11 08:38:21;;;;;;;10.17;9.17;;;;;;;34.26;32.40;94924.28;6247479;23;20400;-85
2021/08/11 08:40:48;;;;;;;12.87;8.20;;;;;;;34.36;30.77;94922.34;6247337;23;20477;-86
2021/08/11 08:43:16;;;;;;;7.97;7.00;;;;;;;34.34;27.12;94908.19;6246856;23;20398;-86
2021/08/11 08:45:46;;;;;;;17.00;7.20;;;;;;;34.41;28.48;94911.47;6245295;23;20822;-86
2021/08/11 08:48:13;;;;;;;6.83;6.20;;;;;;;34.54;28.55;94914.66;6246816;23;20506;-86
2021/08/11 08:50:41;;;;;;;7.23;6.53;;;;;;;34.45;27.47;94912.53;6246451;23;20410;-85
2021/08/11 08:53:10;;;;;;;7.90;7.20;;;;;;;34.20;27.20;94900.88;6246443;23;20440;-85
2021/08/11 08:55:38;;;;;;;6.47;5.90;;;;;;;34.36;26.03;94902.47;6246806;23;20452;-86
2021/08/11 08:58:05;;;;;;;7.60;6.90;;;;;;;34.46;25.79;94913.34;6246367;23;20889;-86
2021/08/11 09:00:35;;;;;;;7.60;6.90;;;;;;;34.52;25.40;94893.13;6246991;23;20394;-86
2021/08/11 09:03:02;;;;;;;7.90;6.73;;;;;;;34.24;26.72;94894.59;6246611;23;20428;-85
2021/08/11 09:27:50;;;;;;;7.83;7.13;;;;;;;34.00;27.25;94879.94;6273363;22;20481;-86
2021/08/11 09:30:20;;;;;;;8.50;7.80;;;;;;;34.21;27.87;94883.44;6245822;23;20432;-86
2021/08/11 09:32:53;;;;;;;9.93;7.60;;;;;;;34.45;29.04;94890.72;6246805;23;20471;-86
2021/08/11 09:35:24;;;;;;;7.03;6.40;;;;;;;34.32;27.32;94885.81;6246928;23;20814;-85
2021/08/11 09:37:52;;;;;;;9.90;6.70;;;;;;;34.35;27.48;94879.03;6246849;23;20401;-86
2021/08/11 09:40:20;;;;;;;9.93;7.17;;;;;;;34.48;30.03;94883.88;6246722;23;20394;-86
2021/08/11 09:42:48;;;;;;;8.03;6.70;;;;;;;34.55;27.02;94878.94;6245557;23;20451;-85
2021/08/11 09:45:16;;;;;;;7.17;6.47;;;;;;;34.63;26.14;94880.25;6246545;23;20394;-86
2021/08/11 09:48:08;;;;;;;7.07;6.47;;;;;;;34.64;25.16;94871.78;6245603;23;20386;-86
2021/08/11 09:50:38;;;;;;;10.07;7.00;;;;;;;34.38;25.62;94865.66;6183278;23;20422;-85
2021/08/11 09:53:07;;;;;;;7.80;7.00;;;;;;;34.39;26.28;94864.56;6183962;23;20422;-86
2021/08/11 09:56:05;;;;;;;8.83;6.47;;;;;;;34.31;27.20;94854.22;6183138;23;20943;-85
2021/08/11 09:58:38;;;;;;;15.30;6.83;;;;;;;34.37;28.04;94864.03;6183464;23;20704;-86
2021/08/11 10:01:06;;;;;;;6.90;6.30;;;;;;;34.46;28.09;94865.09;6183197;23;20468;-86
2021/08/11 10:20:22;;;;;;;7.10;6.40;;;;;;;33.72;23.01;94844.03;6182619;23;20510;-86
2021/08/11 10:22:49;;;;;;;6.70;6.07;;;;;;;33.53;24.08;94841.06;6182761;23;20886;-86
2021/08/11 10:25:17;;;;;;;6.40;5.73;;;;;;;33.69;23.74;94835.63;6183334;23;20887;-86
2021/08/11 10:27:45;;;;;;;6.03;5.53;;;;;;;33.78;23.02;94836.69;6229404;22;20712;-85
2021/08/11 10:30:14;;;;;;;6.80;5.80;;;;;;;33.61;23.61;94839.72;6276212;22;20822;-85
2021/08/11 10:32:41;;;;;;;6.30;5.80;;;;;;;33.72;23.21;94837.78;6276656;22;20413;-85
2021/08/11 10:35:09;;;;;;;11.67;6.27;;;;;;;33.76;24.10;94833.41;6276937;22;20460;-86
2021/08/11 10:37:39;;;;;;;8.60;7.43;;;;;;;33.83;24.42;94831.28;6277161;22;20400;-86
2021/08/11 10:40:07;;;;;;;8.90;6.60;;;;;;;33.88;24.54;94825.81;6277214;22;20480;-86
2021/08/11 10:42:34;;;;;;;9.23;6.70;;;;;;;34.00;25.86;94818.13;6276944;22;20389;-86
2021/08/11 10:45:01;;;;;;;8.70;6.07;;;;;;;34.07;23.32;94818.63;6276887;22;20476;-85
2021/08/11 10:47:33;;;;;;;7.13;6.43;;;;;;;34.14;23.32;94811.00;6223976;22;20397;-86
2021/08/11 10:50:03;;;;;;;6.13;5.53;;;;;;;34.20;23.50;94808.25;6276561;22;20512;-86
2021/08/11 10:52:31;;;;;;;6.87;5.80;;;;;;;34.22;23.78;94806.88;6276718;22;20385;-86
2021/08/11 10:58:38;;;;;;;7.03;6.33;;;;;;;34.10;23.15;94800.91;6274339;22;20450;-86
2021/08/11 11:01:26;;;;;;;6.27;5.67;;;;;;;34.02;23.08;94796.06;6275852;22;20736;-86
2021/08/11 11:03:53;;;;;;;5.90;5.40;;;;;;;34.04;22.63;94796.59;6276934;22;20491;-86
2021/08/11 11:06:21;;;;;;;6.33;5.40;;;;;;;34.06;22.51;94791.69;6276459;22;20384;-86
2021/08/11 11:08:48;;;;;;;9.83;5.60;;;;;;;34.06;21.11;94780.78;6277080;22;20420;-86
2021/08/11 11:21:34;;;;;;;8.67;6.20;;;;;;;34.33;21.01;94775.75;6274941;22;20388;-85
2021/08/11 11:24:01;;;;;;;6.20;5.60;;;;;;;34.35;21.92;94773.56;6276296;22;20388;-85
2021/08/11 11:26:33;;;;;;;7.47;6.60;;;;;;;34.20;22.57;94772.84;6242498;23;20414;-86
2021/08/11 11:29:06;;;;;;;6.50;5.73;;;;;;;34.20;24.01;94765.47;6242217;23;20605;-86
2021/08/11 11:38:20;;;;;;;6.87;5.30;;;;;;;34.32;24.01;94759.66;6242930;23;20424;-86
2021/08/11 11:41:08;;;;;;;5.83;5.17;;;;;;;34.31;22.47;94763.50;6217778;23;20469;-86
2021/08/11 11:43:35;;;;;;;8.50;5.83;;;;;;;34.41;23.67;94752.59;6242425;23;20409;-86
2021/08/11 11:46:02;;;;;;;6.37;5.77;;;;;;;34.45;23.59;94748.19;6241046;23;20405;-86
2021/08/11 11:49:11;;;;;;;6.33;5.73;;;;;;;34.57;23.52;94739.66;6168223;23;20499;-86
2021/08/11 11:51:41;;;;;;;7.50;6.60;;;;;;;34.57;23.36;94743.19;6173692;23;20458;-85
2021/08/11 11:54:10;;;;;;;6.80;6.10;;;;;;;34.68;24.56;94741.19;6182418;23;20399;-85
2021/08/11 11:56:37;;;;;;;7.70;7.03;;;;;;;34.72;23.69;94734.91;6182284;23;20913;-85
2021/08/11 12:12:31;;;;;;;7.40;6.07;;;;;;;34.15;25.58;94728.19;6182699;23;20395;-86
2021/08/11 12:15:18;;;;;;;6.17;5.50;;;;;;;34.20;24.84;94719.16;6183676;23;20454;-85
2021/08/11 12:17:45;;;;;;;10.87;5.53;;;;;;;34.16;25.50;94718.91;6184025;23;20401;-86
2021/08/11 12:41:21;;;;;;;6.93;6.07;;;;;;;34.13;25.93;94703.13;6277473;22;20482;-84
2021/08/11 12:43:50;;;;;;;8.20;6.30;;;;;;;34.28;26.09;94715.03;6250646;22;20401;-84
2021/08/11 12:46:17;;;;;;;6.80;6.10;;;;;;;34.14;26.25;94710.22;6277209;22;20877;-84
2021/08/11 12:48:44;;;;;;;7.50;6.40;;;;;;;34.14;27.13;94717.56;6277074;22;20401;-84
2021/08/11 13:08:03;;;;;;;9.37;6.10;;;;;;;33.71;27.63;94708.22;6275653;22;20396;-83
2021/08/11 13:10:34;;;;;;;7.40;5.90;;;;;;;33.70;27.94;94704.69;6277321;22;20433;-84
2021/08/11 13:13:21;;;;;;;8.53;5.67;;;;;;;33.68;28.57;94697.88;6277661;22;20393;-84
2021/08/11 13:15:49;;;;;;;11.50;5.83;;;;;;;33.68;27.64;94695.97;6276989;22;20844;-83
2021/08/11 13:18:24;;;;;;;8.23;6.10;;;;;;;33.70;27.92;94691.06;6277658;22;20388;-84
2021/08/11 13:20:51;;;;;;;7.60;6.90;;;;;;;33.68;27.74;94679.66;6277217;22;20888;-85
2021/08/11 13:23:19;;;;;;;8.27;6.27;;;;;;;33.65;28.47;94688.38;6249226;22;20416;-86
2021/08/11 13:25:48;;;;;;;8.87;6.63;;;;;;;33.75;28.87;94684.78;6224981;22;20496;-86
2021/08/11 13:28:18;;;;;;;7.23;5.20;;;;;;;33.76;26.99;94681.78;6277579;22;20959;-86
2021/08/11 13:30:45;;;;;;;6.90;6.17;;;;;;;33.63;27.50;94687.03;6277426;22;20508;-86
2021/08/11 13:33:13;;;;;;;12.30;6.37;;;;;;;33.64;27.74;94673.16;6277788;22;20424;-87
2021/08/11 13:35:40;;;;;;;7.50;5.63;;;;;;;33.67;27.37;94671.75;6277989;22;20399;-86
2021/08/11 13:38:10;;;;;;;8.03;6.73;;;;;;;33.71;27.89;94673.66;6277685;22;20847;-86
2021/08/11 13:40:39;;;;;;;7.27;6.00;;;;;;;33.72;28.99;94669.00;6278572;22;20428;-86
2021/08/11 13:43:06;;;;;;;5.73;5.13;;;;;;;33.67;27.96;94666.31;6278082;22;20499;-86
2021/08/11 13:55:45;;;;;;;7.80;5.83;;;;;;;33.65;29.76;94674.78;6277306;22;20376;-86
2021/08/11 13:58:12;;;;;;;7.20;5.87;;;;;;;33.73;30.55;94670.63;6277367;22;20408;-86
2021/08/11 14:00:39;;;;;;;7.77;5.87;;;;;;;33.65;28.69;94669.31;6223164;22;20393;-86
2021/08/11 14:03:06;;;;;;;5.80;5.27;;;;;;;33.58;29.54;94668.81;6277480;22;20401;-86
2021/08/11 14:05:33;;;;;;;6.83;6.23;;;;;;;33.54;29.09;94675.88;6277715;22;20412;-86
2021/08/11 14:08:00;;;;;;;8.03;5.97;;;;;;;33.54;28.30;94668.56;6278007;22;20395;-86
2021/08/11 14:10:27;;;;;;;7.87;6.20;;;;;;;33.56;28.80;94671.00;6277555;22;20439;-86
2021/08/11 14:12:55;;;;;;;7.67;5.50;;;;;;;33.54;28.65;94670.44;6224948;22;20967;-86
2021/08/11 14:15:22;;;;;;;6.07;5.57;;;;;;;33.45;27.76;94669.41;6277208;22;20877;-86
2021/08/11 14:17:49;;;;;;;6.57;5.63;;;;;;;33.35;28.68;94664.00;6277914;22;20400;-85
2021/08/11 14:20:16;;;;;;;6.83;6.20;;;;;;;33.22;28.99;94666.19;6278941;22;20488;-86
2021/08/11 14:22:43;;;;;;;15.83;6.13;;;;;;;33.29;28.55;94665.09;6278576;22;20774;-86
2021/08/11 14:25:11;;;;;;;11.00;6.30;;;;;;;33.16;28.46;94656.41;6249669;22;20397;-86
2021/08/11 14:27:38;;;;;;;8.30;6.03;;;;;;;33.19;28.36;94655.03;6277837;22;20389;-86
2021/08/11 14:30:07;;;;;;;10.10;6.37;;;;;;;33.19;29.76;94672.19;6277342;22;20434;-86
2021/08/11 14:32:34;;;;;;;10.33;6.83;;;;;;;33.19;30.71;94666.75;6276972;22;20865;-86
2021/08/11 14:35:01;;;;;;;9.13;5.90;;;;;;;33.10;30.53;94662.97;6276838;22;20948;-86
2021/08/11 14:37:28;;;;;;;7.97;7.10;;;;;;;32.86;30.53;94656.50;6224460;22;20726;-86
2021/08/11 14:39:55;;;;;;;6.70;5.30;;;;;;;32.85;30.64;94660.31;6277312;22;20439;-86
2021/08/11 14:42:22;;;;;;;10.03;5.90;;;;;;;32.97;31.14;94662.75;6277387;22;20414;-86
2021/08/11 14:44:48;;;;;;;7.57;6.27;;;;;;;32.89;31.67;94666.81;6276647;22;20401;-86
2021/08/11 14:47:17;;;;;;;6.37;5.73;;;;;;;32.77;31.63;94658.94;6277098;22;20424;-86
2021/08/11 14:49:44;;;;;;;6.40;5.90;;;;;;;32.38;31.87;94642.38;6277265;22;20429;-86
2021/08/11 14:52:11;;;;;;;7.73;5.63;;;;;;;32.29;31.79;94658.41;6276773;22;20385;-86
2021/08/11 14:54:41;;;;;;;8.80;6.50;;;;;;;32.21;31.68;94656.22;6224329;22;20408;-86